Time;durP1;ratioP1;P1;durP2;ratioP2;P2;SDS_P1;SDS_P2;PMS_P1;PMS_P2;Temp;Humidity;BMP_temperature;BMP_pressure;BME280_temperature;BME280_humidity;BME280_pressure;Samples;Min_cycle;Max_cycle;Signal;HPM_P1;HPM_P2
2022/05/27 00:01:18;;;;;;;1.80;0.60;;;13.50;93.10;;;;;;5099033;28;20666;-85
2022/05/27 00:03:45;;;;;;;0.60;0.60;;;13.60;93.00;;;;;;5097066;28;20616;-85
2022/05/27 00:06:12;;;;;;;0.93;0.80;;;13.50;93.50;;;;;;5110601;28;20669;-85
2022/05/27 00:08:39;;;;;;;0.70;0.70;;;13.60;92.70;;;;;;5109054;28;20616;-85
2022/05/27 00:11:07;;;;;;;1.00;0.90;;;13.60;92.80;;;;;;5094574;28;20619;-84
2022/05/27 00:13:35;;;;;;;0.67;0.60;;;13.50;93.30;;;;;;5091507;28;21186;-85
2022/05/27 00:16:04;;;;;;;0.83;0.80;;;13.50;93.10;;;;;;5109187;28;20703;-85
2022/05/27 00:18:33;;;;;;;1.23;0.90;;;13.30;93.30;;;;;;5091378;28;20648;-85
2022/05/27 00:21:01;;;;;;;0.97;0.93;;;13.40;94.10;;;;;;5091257;28;20612;-84
2022/05/27 00:23:28;;;;;;;1.57;0.80;;;13.30;94.20;;;;;;5104371;28;20616;-85
2022/05/27 00:25:57;;;;;;;1.00;0.73;;;13.20;93.80;;;;;;5109065;28;21173;-85
2022/05/27 00:28:24;;;;;;;1.23;1.00;;;13.30;94.00;;;;;;5109692;28;20663;-85
2022/05/27 00:30:52;;;;;;;0.60;0.60;;;13.20;93.80;;;;;;5107124;28;20624;-84
2022/05/27 00:33:20;;;;;;;1.20;0.80;;;13.20;93.30;;;;;;5092528;28;20711;-85
2022/05/27 00:35:49;;;;;;;1.13;0.90;;;13.10;93.20;;;;;;5109569;28;20643;-85
2022/05/27 00:38:18;;;;;;;1.13;0.83;;;13.10;93.00;;;;;;5110034;28;20724;-84
2022/05/27 00:40:48;;;;;;;0.80;0.60;;;13.00;93.70;;;;;;5110913;28;20668;-84
2022/05/27 00:43:17;;;;;;;0.73;0.73;;;13.00;93.40;;;;;;5105856;28;21181;-85
2022/05/27 00:45:57;;;;;;;0.70;0.70;;;13.00;93.60;;;;;;5094358;28;20961;-85
2022/05/27 00:48:26;;;;;;;0.70;0.70;;;12.80;94.20;;;;;;5097498;28;20766;-85
2022/05/27 00:50:57;;;;;;;0.83;0.73;;;12.50;94.10;;;;;;5113284;28;21201;-85
2022/05/27 00:53:35;;;;;;;0.60;0.60;;;12.70;94.30;;;;;;5099571;28;20616;-85
2022/05/27 00:56:05;;;;;;;0.63;0.63;;;12.70;94.50;;;;;;5093077;28;20649;-84
2022/05/27 00:58:37;;;;;;;1.07;0.97;;;12.70;94.30;;;;;;5097305;28;20654;-85
2022/05/27 01:01:05;;;;;;;1.03;1.03;;;12.70;95.20;;;;;;5094173;28;20629;-85
2022/05/27 01:03:33;;;;;;;0.70;0.50;;;12.60;95.20;;;;;;5094631;28;20674;-85
2022/05/27 01:06:01;;;;;;;0.83;0.83;;;12.70;94.80;;;;;;5096618;28;20622;-85
2022/05/27 01:08:30;;;;;;;1.13;1.00;;;12.70;94.90;;;;;;5111819;28;20682;-84
2022/05/27 01:11:10;;;;;;;2.80;0.60;;;12.60;94.80;;;;;;5093036;28;20727;-84
2022/05/27 01:13:49;;;;;;;0.90;0.90;;;12.50;95.10;;;;;;5102706;28;20634;-85
2022/05/27 01:16:29;;;;;;;0.73;0.70;;;12.70;94.90;;;;;;5102007;28;20727;-85
2022/05/27 01:22:44;;;;;;;1.13;1.00;;;12.50;95.50;;;;;;5093555;28;21168;-84
2022/05/27 01:25:41;;;;;;;0.50;0.40;;;12.60;95.80;;;;;;5092664;28;20718;-84
2022/05/27 01:28:35;;;;;;;1.33;1.03;;;12.60;95.80;;;;;;5111138;28;20654;-84
2022/05/27 01:31:11;;;;;;;0.63;0.63;;;12.50;96.00;;;;;;5099871;28;20680;-84
2022/05/27 01:33:44;;;;;;;1.17;0.90;;;12.40;96.20;;;;;;5092758;28;20623;-84
2022/05/27 01:36:22;;;;;;;0.63;0.63;;;12.50;95.50;;;;;;5096802;28;20627;-84
2022/05/27 01:39:00;;;;;;;0.40;0.40;;;12.40;95.80;;;;;;5111558;28;20626;-84
2022/05/27 01:41:36;;;;;;;0.57;0.57;;;12.40;96.30;;;;;;5108449;28;20684;-84
2022/05/27 01:44:11;;;;;;;1.10;1.00;;;12.40;95.80;;;;;;5094467;28;20634;-84
2022/05/27 01:46:43;;;;;;;0.70;0.70;;;12.40;96.00;;;;;;5095820;28;20607;-85
2022/05/27 01:49:20;;;;;;;3.07;2.30;;;12.40;95.80;;;;;;5097203;28;20658;-85
2022/05/27 01:51:54;;;;;;;0.60;0.60;;;12.30;95.70;;;;;;5111525;28;20623;-84
2022/05/27 01:54:32;;;;;;;0.80;0.80;;;12.30;95.30;;;;;;5091215;28;20679;-84
2022/05/27 01:57:06;;;;;;;0.90;0.90;;;12.30;96.10;;;;;;5111388;28;20621;-85
2022/05/27 01:59:38;;;;;;;0.90;0.90;;;12.30;96.00;;;;;;5092377;27;20622;-84
2022/05/27 02:02:13;;;;;;;0.70;0.63;;;12.30;96.30;;;;;;5098843;28;20616;-85
2022/05/27 02:04:46;;;;;;;0.77;0.77;;;12.20;96.40;;;;;;5093809;28;20618;-84
2022/05/27 02:07:19;;;;;;;0.60;0.60;;;12.30;96.00;;;;;;5095041;28;20640;-85
2022/05/27 02:09:49;;;;;;;0.53;0.53;;;12.30;95.80;;;;;;5092303;28;21161;-85
2022/05/27 02:12:21;;;;;;;1.07;0.90;;;12.40;95.90;;;;;;5099827;28;21186;-84
2022/05/27 02:14:52;;;;;;;0.70;0.70;;;12.40;95.80;;;;;;5092370;28;20628;-85
2022/05/27 02:17:25;;;;;;;1.03;0.73;;;12.30;95.90;;;;;;5098573;28;20764;-85
2022/05/27 02:19:56;;;;;;;0.77;0.77;;;12.40;95.80;;;;;;5110550;28;20626;-85
2022/05/27 02:22:27;;;;;;;0.73;0.73;;;12.30;96.40;;;;;;5108463;28;20619;-84
2022/05/27 02:24:58;;;;;;;0.73;0.67;;;12.30;96.60;;;;;;5092141;28;20618;-84
2022/05/27 02:27:28;;;;;;;0.87;0.50;;;12.30;96.00;;;;;;5096703;28;20646;-84
2022/05/27 02:29:59;;;;;;;0.70;0.70;;;12.40;96.30;;;;;;5091905;28;20652;-84
2022/05/27 02:32:32;;;;;;;0.87;0.87;;;12.40;96.50;;;;;;5110145;28;20681;-85
2022/05/27 02:35:09;;;;;;;0.90;0.63;;;12.30;96.90;;;;;;5112412;28;20678;-84
2022/05/27 02:37:40;;;;;;;1.13;0.70;;;12.20;97.10;;;;;;5109449;28;20665;-84
2022/05/27 02:40:11;;;;;;;0.77;0.77;;;12.10;97.40;;;;;;5103984;28;20755;-84
2022/05/27 02:42:49;;;;;;;1.07;1.07;;;12.00;96.70;;;;;;5093596;28;20657;-84
2022/05/27 02:45:25;;;;;;;3.43;1.00;;;12.10;96.90;;;;;;5111494;28;21156;-85
2022/05/27 02:48:01;;;;;;;0.43;0.43;;;12.00;97.00;;;;;;5097303;28;20688;-85
2022/05/27 02:50:35;;;;;;;2.83;1.10;;;12.10;97.30;;;;;;5094089;28;21269;-85
2022/05/27 02:53:08;;;;;;;0.77;0.73;;;12.10;97.60;;;;;;5108427;28;20729;-84
2022/05/27 02:55:45;;;;;;;1.53;0.93;;;12.00;97.40;;;;;;5090394;28;20657;-85
2022/05/27 02:58:11;;;;;;;1.13;1.03;;;12.00;97.50;;;;;;5108408;28;20655;-84
2022/05/27 03:00:40;;;;;;;1.87;0.87;;;12.00;97.90;;;;;;5111762;28;20724;-84
2022/05/27 03:03:09;;;;;;;1.50;1.23;;;12.00;98.30;;;;;;5095281;28;20623;-85
2022/05/27 03:05:45;;;;;;;1.03;0.87;;;12.40;98.30;;;;;;5089546;28;20632;-84
2022/05/27 03:08:21;;;;;;;2.00;0.70;;;11.80;98.00;;;;;;5107348;28;21231;-85
2022/05/27 03:11:02;;;;;;;1.13;0.90;;;11.90;98.40;;;;;;5109941;28;20694;-85
2022/05/27 03:13:57;;;;;;;1.00;0.80;;;11.90;98.20;;;;;;5101512;28;20852;-84
2022/05/27 03:16:31;;;;;;;0.80;0.80;;;11.80;98.10;;;;;;5093567;28;20294;-84
2022/05/27 03:19:16;;;;;;;1.33;0.80;;;11.80;97.50;;;;;;5100555;28;20671;-85
2022/05/27 03:21:54;;;;;;;1.67;1.27;;;11.90;97.40;;;;;;5097802;28;20980;-84
2022/05/27 03:24:31;;;;;;;1.03;0.93;;;12.00;98.90;;;;;;5091426;28;20611;-84
2022/05/27 03:27:11;;;;;;;1.03;0.90;;;12.00;98.40;;;;;;5096988;28;20726;-85
2022/05/27 03:29:45;;;;;;;0.70;0.70;;;12.00;98.70;;;;;;5091141;28;21278;-85
2022/05/27 03:32:25;;;;;;;0.90;0.90;;;12.10;98.00;;;;;;5102618;28;20673;-84
2022/05/27 03:34:58;;;;;;;1.40;1.30;;;12.00;98.50;;;;;;5109435;28;20617;-84
2022/05/27 03:37:30;;;;;;;1.40;1.00;;;12.10;98.80;;;;;;5109566;28;20729;-84
2022/05/27 03:40:05;;;;;;;1.50;0.80;;;12.30;98.50;;;;;;5092991;28;20710;-85
2022/05/27 03:42:33;;;;;;;1.57;0.90;;;12.30;98.40;;;;;;5110578;28;20720;-84
2022/05/27 03:45:04;;;;;;;0.60;0.60;;;12.40;98.50;;;;;;5097508;28;21080;-84
2022/05/27 03:47:36;;;;;;;0.70;0.70;;;12.50;98.20;;;;;;5111267;28;20617;-84
2022/05/27 03:50:07;;;;;;;1.13;1.03;;;12.50;98.10;;;;;;5098624;28;20712;-84
2022/05/27 03:52:37;;;;;;;0.77;0.77;;;12.50;98.10;;;;;;5100174;28;20624;-84
2022/05/27 03:55:05;;;;;;;1.83;1.10;;;12.50;98.40;;;;;;5092739;28;20611;-84
2022/05/27 03:57:32;;;;;;;1.13;0.70;;;12.60;98.10;;;;;;5108638;28;20619;-84
2022/05/27 03:59:59;;;;;;;0.70;0.70;;;12.70;98.20;;;;;;5099079;28;20628;-84
2022/05/27 04:02:25;;;;;;;2.17;0.80;;;12.70;98.80;;;;;;5090692;28;21201;-84
2022/05/27 04:04:52;;;;;;;0.80;0.80;;;12.80;98.20;;;;;;5091801;28;20719;-84
2022/05/27 04:07:21;;;;;;;3.80;0.97;;;12.80;97.60;;;;;;5095834;28;20713;-84
2022/05/27 04:09:48;;;;;;;1.13;0.80;;;12.90;97.40;;;;;;5110940;28;21250;-85
2022/05/27 04:12:15;;;;;;;1.37;0.90;;;12.90;96.90;;;;;;5093891;28;21062;-84
2022/05/27 04:14:42;;;;;;;2.47;1.60;;;13.00;96.90;;;;;;5093230;28;20624;-84
2022/05/27 04:19:53;;;;;;;0.60;0.60;;;13.10;96.80;;;;;;5094868;28;21207;-84
2022/05/27 04:22:21;;;;;;;0.57;0.57;;;13.20;96.60;;;;;;5095396;28;20660;-84
2022/05/27 04:24:48;;;;;;;1.20;1.10;;;13.30;96.20;;;;;;5102571;28;20604;-85
2022/05/27 04:27:18;;;;;;;0.83;0.83;;;13.40;96.10;;;;;;5105295;28;20714;-84
2022/05/27 04:29:47;;;;;;;0.73;0.73;;;13.50;95.70;;;;;;5108388;28;20758;-85
2022/05/27 04:32:14;;;;;;;0.70;0.70;;;13.60;95.60;;;;;;5097943;28;20620;-84
2022/05/27 04:34:42;;;;;;;0.77;0.77;;;13.70;95.40;;;;;;5108361;28;20710;-84
2022/05/27 04:37:09;;;;;;;0.87;0.87;;;13.70;95.20;;;;;;5105053;28;20616;-84
2022/05/27 04:39:38;;;;;;;0.90;0.90;;;13.70;95.10;;;;;;5106572;28;20974;-84
2022/05/27 04:42:05;;;;;;;1.03;1.03;;;13.80;95.10;;;;;;5111920;28;20670;-84
2022/05/27 04:44:33;;;;;;;0.80;0.80;;;13.80;95.00;;;;;;5094202;28;20616;-85
2022/05/27 04:47:00;;;;;;;1.07;0.80;;;13.90;94.80;;;;;;5105837;28;20711;-84
2022/05/27 04:52:11;;;;;;;0.83;0.83;;;13.90;94.60;;;;;;5099579;28;20655;-84
2022/05/27 04:54:40;;;;;;;0.67;0.67;;;14.10;94.40;;;;;;5103949;28;21003;-85
2022/05/27 04:57:07;;;;;;;1.80;1.23;;;13.90;94.50;;;;;;5097119;28;20681;-84
2022/05/27 04:59:36;;;;;;;0.70;0.70;;;13.80;95.00;;;;;;5111546;28;20697;-85
2022/05/27 05:02:03;;;;;;;1.10;0.97;;;14.20;95.10;;;;;;5093294;28;20629;-85
2022/05/27 05:04:30;;;;;;;0.80;0.80;;;14.00;94.80;;;;;;5094744;28;21353;-85
2022/05/27 05:07:02;;;;;;;0.67;0.60;;;14.10;94.70;;;;;;5094192;28;20613;-84
2022/05/27 05:09:29;;;;;;;0.70;0.70;;;14.00;94.70;;;;;;5093658;28;20661;-84
2022/05/27 05:11:57;;;;;;;1.10;0.93;;;14.20;94.50;;;;;;5099361;28;20990;-84
2022/05/27 05:14:24;;;;;;;0.83;0.83;;;14.10;94.10;;;;;;5093433;28;20605;-84
2022/05/27 05:16:52;;;;;;;1.30;1.20;;;14.00;94.60;;;;;;5104476;28;20631;-84
2022/05/27 05:19:18;;;;;;;0.80;0.70;;;14.10;94.80;;;;;;5105991;28;20621;-84
2022/05/27 05:21:45;;;;;;;0.80;0.77;;;14.10;94.90;;;;;;5099253;28;20671;-84
2022/05/27 05:24:12;;;;;;;0.50;0.50;;;14.00;95.00;;;;;;5103590;28;20626;-84
2022/05/27 05:26:39;;;;;;;0.83;0.83;;;14.10;95.10;;;;;;5104432;27;20632;-84
2022/05/27 05:29:07;;;;;;;1.00;0.90;;;14.10;95.10;;;;;;5107672;27;20652;-84
2022/05/27 05:31:35;;;;;;;0.80;0.77;;;14.20;95.30;;;;;;5096735;28;20701;-85
2022/05/27 05:34:02;;;;;;;0.60;0.60;;;14.30;95.40;;;;;;5111477;28;20616;-85
2022/05/27 05:36:29;;;;;;;1.70;0.80;;;14.30;95.10;;;;;;5110754;28;20612;-84
2022/05/27 05:38:57;;;;;;;0.50;0.43;;;14.40;95.00;;;;;;5092968;28;20613;-84
2022/05/27 05:41:28;;;;;;;1.73;0.67;;;14.40;94.70;;;;;;5104925;28;20656;-84
2022/05/27 05:43:55;;;;;;;0.70;0.70;;;14.40;95.00;;;;;;5092683;28;20621;-85
2022/05/27 05:46:24;;;;;;;0.57;0.57;;;14.60;95.40;;;;;;5093210;28;20704;-85
2022/05/27 05:48:51;;;;;;;0.80;0.80;;;14.50;95.00;;;;;;5093546;28;21237;-85
2022/05/27 05:51:18;;;;;;;1.30;1.20;;;14.60;94.60;;;;;;5104449;28;20707;-84
2022/05/27 05:53:45;;;;;;;0.87;0.87;;;14.70;94.40;;;;;;5101099;28;21532;-84
2022/05/27 05:56:13;;;;;;;0.80;0.80;;;14.60;94.40;;;;;;5092149;28;20645;-84
2022/05/27 05:58:40;;;;;;;0.47;0.40;;;14.60;94.40;;;;;;5101263;28;20611;-84
2022/05/27 06:01:07;;;;;;;1.03;0.97;;;14.60;94.30;;;;;;5111661;28;20654;-86
2022/05/27 06:03:36;;;;;;;1.03;0.70;;;14.60;94.20;;;;;;5098219;28;20693;-84
2022/05/27 06:06:02;;;;;;;1.23;1.13;;;14.60;94.50;;;;;;5092020;28;20644;-84
2022/05/27 06:08:30;;;;;;;1.40;1.03;;;14.60;95.00;;;;;;5111283;28;21108;-85
2022/05/27 06:10:57;;;;;;;1.90;0.90;;;14.60;94.70;;;;;;5112964;28;20954;-84
2022/05/27 06:13:25;;;;;;;1.73;1.13;;;14.70;94.30;;;;;;5110680;28;20619;-84
2022/05/27 06:15:52;;;;;;;1.10;0.87;;;14.80;94.70;;;;;;5112717;28;20623;-84
2022/05/27 06:18:20;;;;;;;0.80;0.80;;;14.80;94.30;;;;;;5099341;28;20686;-84
2022/05/27 06:20:48;;;;;;;0.70;0.70;;;14.90;94.40;;;;;;5092524;28;20652;-84
2022/05/27 06:23:15;;;;;;;0.90;0.90;;;14.90;94.20;;;;;;5108589;28;20626;-84
2022/05/27 06:25:42;;;;;;;1.07;1.00;;;15.00;94.50;;;;;;5111821;28;20619;-84
2022/05/27 06:36:23;;;;;;;1.58;1.48;;;15.10;94.60;;;;;;5080557;28;21103;-85
2022/05/27 06:38:50;;;;;;;0.77;0.77;;;15.10;94.10;;;;;;5098944;28;20242;-84
2022/05/27 06:41:17;;;;;;;0.77;0.77;;;15.00;94.40;;;;;;5111534;28;20612;-84
2022/05/27 06:43:45;;;;;;;0.50;0.40;;;15.00;94.90;;;;;;5110614;28;20677;-84
2022/05/27 06:46:14;;;;;;;2.53;0.80;;;15.00;94.90;;;;;;5105004;27;20628;-84
2022/05/27 06:48:41;;;;;;;0.70;0.70;;;15.10;95.10;;;;;;5093092;28;20655;-84
2022/05/27 06:51:08;;;;;;;1.13;1.13;;;14.90;94.30;;;;;;5107012;28;20715;-84
2022/05/27 06:53:36;;;;;;;1.40;1.30;;;15.10;94.40;;;;;;5092232;28;20624;-85
2022/05/27 06:56:03;;;;;;;0.83;0.83;;;15.00;94.60;;;;;;5092738;28;20627;-85
2022/05/27 06:58:30;;;;;;;1.60;1.00;;;15.10;94.70;;;;;;5089331;28;20652;-84
2022/05/27 07:00:57;;;;;;;0.57;0.57;;;15.20;94.50;;;;;;5091229;28;20721;-84
2022/05/27 07:03:24;;;;;;;1.10;1.03;;;15.20;94.70;;;;;;5090620;28;20660;-84
2022/05/27 07:05:51;;;;;;;0.80;0.63;;;15.20;94.50;;;;;;5091397;28;20663;-84
2022/05/27 07:08:18;;;;;;;0.90;0.80;;;15.10;94.80;;;;;;5102329;28;20646;-84
2022/05/27 07:10:46;;;;;;;1.73;0.67;;;14.80;94.20;;;;;;5108349;28;21023;-84
2022/05/27 07:13:14;;;;;;;0.70;0.70;;;15.10;94.30;;;;;;5097675;28;20715;-84
2022/05/27 07:15:41;;;;;;;1.17;1.00;;;14.90;93.80;;;;;;5104208;28;20652;-84
2022/05/27 07:18:09;;;;;;;1.13;1.03;;;15.10;94.10;;;;;;5101773;28;20646;-84
2022/05/27 07:20:37;;;;;;;0.87;0.80;;;15.20;94.30;;;;;;5105331;28;20624;-84
2022/05/27 07:23:04;;;;;;;1.00;1.00;;;15.30;94.20;;;;;;5100322;28;20978;-84
2022/05/27 07:25:35;;;;;;;1.77;0.80;;;15.20;93.70;;;;;;5106221;28;21225;-83
2022/05/27 07:28:03;;;;;;;0.50;0.50;;;15.20;93.90;;;;;;5100790;28;20968;-84
2022/05/27 07:30:30;;;;;;;1.10;0.93;;;15.20;94.50;;;;;;5093804;28;20664;-84
2022/05/27 07:32:57;;;;;;;0.97;0.97;;;15.30;94.40;;;;;;5097879;28;20616;-85
2022/05/27 07:35:27;;;;;;;0.80;0.80;;;15.30;95.00;;;;;;5090460;28;20628;-85
2022/05/27 07:37:54;;;;;;;1.30;1.13;;;15.40;94.70;;;;;;5101932;28;20623;-86
2022/05/27 07:40:22;;;;;;;0.80;0.80;;;15.20;94.10;;;;;;5107487;28;20616;-84
2022/05/27 07:42:49;;;;;;;1.23;1.20;;;15.20;94.10;;;;;;5106098;28;20690;-85
2022/05/27 07:45:26;;;;;;;1.30;1.20;;;15.50;94.20;;;;;;5097445;28;20616;-85
2022/05/27 07:47:53;;;;;;;0.87;0.70;;;15.40;94.30;;;;;;5111200;28;20673;-85
2022/05/27 07:50:20;;;;;;;0.87;0.70;;;15.50;94.30;;;;;;5110721;28;20659;-84
2022/05/27 07:52:47;;;;;;;1.30;1.20;;;15.60;94.10;;;;;;5107076;27;20625;-85
2022/05/27 07:55:14;;;;;;;0.70;0.60;;;15.70;93.90;;;;;;5112634;28;20646;-84
2022/05/27 07:57:43;;;;;;;0.80;0.80;;;15.90;93.20;;;;;;5097529;28;20660;-84
2022/05/27 08:00:12;;;;;;;0.90;0.90;;;15.80;92.60;;;;;;5108465;28;20615;-86
2022/05/27 08:02:41;;;;;;;2.23;1.70;;;15.70;92.80;;;;;;5114923;28;20623;-84
2022/05/27 08:05:10;;;;;;;0.93;0.90;;;15.70;93.00;;;;;;5112271;28;20615;-83
2022/05/27 08:07:37;;;;;;;0.60;0.60;;;15.80;92.90;;;;;;5108608;28;20661;-84
2022/05/27 08:10:05;;;;;;;0.67;0.67;;;15.80;92.80;;;;;;5114889;28;20708;-85
2022/05/27 08:12:32;;;;;;;0.70;0.70;;;15.80;92.80;;;;;;5101867;28;21263;-84
2022/05/27 08:14:59;;;;;;;1.20;1.20;;;16.00;92.90;;;;;;5109635;28;20620;-85
2022/05/27 08:17:26;;;;;;;1.00;0.90;;;16.10;92.90;;;;;;5094067;28;20640;-84
2022/05/27 08:19:54;;;;;;;1.20;0.67;;;16.50;92.40;;;;;;5097673;28;20616;-84
2022/05/27 08:22:21;;;;;;;1.10;0.83;;;16.40;92.70;;;;;;5114026;28;20623;-84
2022/05/27 08:24:48;;;;;;;0.60;0.53;;;16.50;92.20;;;;;;5094941;28;21236;-85
2022/05/27 08:27:15;;;;;;;1.37;0.73;;;15.60;91.70;;;;;;5104211;28;20630;-85
2022/05/27 08:29:42;;;;;;;0.90;0.90;;;16.20;92.60;;;;;;5109279;28;20680;-84
2022/05/27 08:32:09;;;;;;;2.27;1.00;;;16.40;92.10;;;;;;5101476;28;20676;-83
2022/05/27 08:40:27;;;;;;;0.70;0.70;;;16.50;92.00;;;;;;5113990;28;20608;-85
2022/05/27 08:43:01;;;;;;;1.37;1.27;;;16.60;91.90;;;;;;5107288;28;20652;-85
2022/05/27 08:45:33;;;;;;;0.57;0.47;;;16.40;91.80;;;;;;5093783;28;20763;-85
2022/05/27 08:48:05;;;;;;;2.20;0.87;;;16.10;91.80;;;;;;5109292;28;20623;-84
2022/05/27 08:50:37;;;;;;;0.80;0.80;;;16.10;92.00;;;;;;5093035;28;20659;-83
2022/05/27 08:53:15;;;;;;;5.03;0.70;;;16.00;91.90;;;;;;5102234;28;20615;-85
2022/05/27 09:01:22;;;;;;;1.03;1.03;;;16.20;92.50;;;;;;5093438;28;20632;-84
2022/05/27 09:03:55;;;;;;;1.43;1.30;;;16.30;91.80;;;;;;5091932;28;20624;-85
2022/05/27 09:06:32;;;;;;;0.63;0.63;;;16.30;91.50;;;;;;5092586;28;21182;-84
2022/05/27 09:09:01;;;;;;;0.80;0.80;;;16.30;91.60;;;;;;5093072;28;20663;-84
2022/05/27 09:11:41;;;;;;;2.73;1.30;;;16.30;92.00;;;;;;5092848;28;20617;-85
2022/05/27 09:14:13;;;;;;;1.13;1.10;;;16.50;92.00;;;;;;5093146;28;20620;-85
2022/05/27 09:16:47;;;;;;;0.90;0.90;;;16.70;91.80;;;;;;5093223;28;20628;-85
2022/05/27 09:19:24;;;;;;;1.53;1.27;;;16.60;91.00;;;;;;5110772;28;20663;-84
2022/05/27 09:22:02;;;;;;;1.00;0.90;;;16.20;90.70;;;;;;5104298;28;20609;-85
2022/05/27 09:24:47;;;;;;;0.60;0.60;;;16.50;91.10;;;;;;5112330;28;21035;-85
2022/05/27 09:27:20;;;;;;;0.97;0.97;;;16.60;91.50;;;;;;5092225;28;20713;-86
2022/05/27 09:29:58;;;;;;;0.70;0.70;;;16.80;91.20;;;;;;5090318;28;20664;-85
2022/05/27 09:32:32;;;;;;;1.17;1.10;;;17.00;92.10;;;;;;5104062;28;20613;-86
2022/05/27 09:35:06;;;;;;;1.73;1.27;;;17.20;90.70;;;;;;5093122;28;20627;-85
2022/05/27 09:37:38;;;;;;;0.67;0.67;;;17.40;90.50;;;;;;5107630;28;21035;-85
2022/05/27 09:40:15;;;;;;;0.80;0.80;;;17.70;88.60;;;;;;5113039;28;20620;-86
2022/05/27 09:42:51;;;;;;;0.77;0.70;;;17.90;87.00;;;;;;5111222;28;20684;-85
2022/05/27 09:45:18;;;;;;;0.63;0.63;;;18.20;87.10;;;;;;5109516;27;20692;-86
2022/05/27 09:47:45;;;;;;;0.80;0.80;;;18.40;83.80;;;;;;5098733;28;20723;-85
2022/05/27 09:50:25;;;;;;;0.97;0.87;;;18.60;86.20;;;;;;5091134;28;20668;-84
2022/05/27 09:52:57;;;;;;;1.20;0.90;;;18.70;85.50;;;;;;5092544;28;20676;-85
2022/05/27 09:55:31;;;;;;;0.80;0.80;;;18.80;83.30;;;;;;5107535;28;20731;-86
2022/05/27 09:58:01;;;;;;;0.87;0.87;;;18.50;80.90;;;;;;5092778;28;20732;-86
2022/05/27 10:00:37;;;;;;;0.67;0.67;;;18.50;80.90;;;;;;5092950;28;20731;-85
2022/05/27 10:03:24;;;;;;;0.50;0.50;;;18.40;78.70;;;;;;5106681;28;20882;-85
2022/05/27 10:05:53;;;;;;;0.70;0.70;;;18.00;79.20;;;;;;5087311;28;21202;-86
2022/05/27 10:08:28;;;;;;;1.27;0.67;;;18.20;80.30;;;;;;5086589;28;21217;-85
2022/05/27 10:11:14;;;;;;;0.80;0.80;;;18.40;79.70;;;;;;5089124;28;20660;-86
2022/05/27 10:13:41;;;;;;;1.00;0.87;;;18.50;79.60;;;;;;5089296;28;21257;-86
2022/05/27 10:16:11;;;;;;;0.70;0.70;;;18.80;79.40;;;;;;5088082;28;20620;-85
2022/05/27 10:18:39;;;;;;;1.10;0.90;;;19.20;76.00;;;;;;5087608;28;20664;-86
2022/05/27 10:21:12;;;;;;;1.47;1.37;;;19.60;75.70;;;;;;5089621;28;20628;-86
2022/05/27 10:23:42;;;;;;;0.67;0.67;;;19.60;75.20;;;;;;5097102;28;20760;-84
2022/05/27 10:26:29;;;;;;;1.00;1.00;;;19.70;71.70;;;;;;5089152;28;21228;-84
2022/05/27 10:28:59;;;;;;;0.60;0.60;;;20.10;74.60;;;;;;5088641;28;20681;-85
2022/05/27 10:31:27;;;;;;;0.63;0.63;;;20.30;71.10;;;;;;5102576;28;20748;-85
2022/05/27 10:33:54;;;;;;;1.13;0.73;;;19.90;69.50;;;;;;5107786;28;20693;-85
2022/05/27 10:36:47;;;;;;;0.70;0.70;;;19.70;68.60;;;;;;5106311;28;20631;-85
2022/05/27 10:39:20;;;;;;;0.80;0.80;;;19.70;69.70;;;;;;5091741;28;20693;-85
2022/05/27 10:42:11;;;;;;;0.70;0.50;;;19.80;69.80;;;;;;5108024;28;21044;-85
2022/05/27 10:44:53;;;;;;;1.27;1.17;;;19.90;71.10;;;;;;5103354;28;20629;-85
2022/05/27 10:47:34;;;;;;;0.60;0.60;;;19.80;70.80;;;;;;5094928;28;20640;-84
2022/05/27 10:50:09;;;;;;;0.97;0.97;;;20.40;71.80;;;;;;5100334;28;20758;-85
2022/05/27 10:53:11;;;;;;;1.33;1.23;;;20.40;70.30;;;;;;5097605;28;20739;-85
2022/05/27 10:55:51;;;;;;;0.77;0.77;;;20.60;67.50;;;;;;5081396;28;20702;-85
2022/05/27 11:04:48;;;;;;;0.97;0.90;;;20.90;67.90;;;;;;5088532;28;20639;-85
2022/05/27 11:07:24;;;;;;;0.70;0.70;;;20.60;68.50;;;;;;5095411;28;20680;-86
2022/05/27 11:10:07;;;;;;;0.70;0.70;;;20.70;69.40;;;;;;5087966;28;20660;-85
2022/05/27 11:15:38;;;;;;;0.93;0.90;;;20.30;67.30;;;;;;5068995;28;20632;-86
2022/05/27 11:18:18;;;;;;;0.67;0.67;;;19.80;68.10;;;;;;5095690;28;20667;-86
2022/05/27 11:21:17;;;;;;;1.07;0.80;;;19.70;69.80;;;;;;5102454;28;21000;-86
2022/05/27 11:24:08;;;;;;;0.43;0.43;;;19.80;69.60;;;;;;5080368;28;20647;-86
2022/05/27 11:26:44;;;;;;;0.80;0.80;;;19.80;70.00;;;;;;5091677;28;20631;-85
2022/05/27 11:29:53;;;;;;;0.63;0.60;;;19.90;71.00;;;;;;5092120;28;20623;-87
2022/05/27 11:32:32;;;;;;;0.63;0.60;;;20.30;70.50;;;;;;5092371;28;20735;-86
2022/05/27 11:35:08;;;;;;;0.77;0.77;;;20.10;66.70;;;;;;5108376;28;21153;-86
2022/05/27 11:37:57;;;;;;;0.70;0.70;;;19.50;67.90;;;;;;5100099;28;20631;-86
2022/05/27 11:40:40;;;;;;;0.70;0.60;;;19.50;69.10;;;;;;5099647;28;20611;-86
2022/05/27 11:43:28;;;;;;;0.63;0.63;;;19.20;68.50;;;;;;5096551;28;20965;-85
2022/05/27 11:46:06;;;;;;;0.73;0.73;;;19.20;70.00;;;;;;5087111;28;20681;-85
2022/05/27 11:48:48;;;;;;;0.63;0.63;;;19.30;69.80;;;;;;5093255;28;21395;-85
2022/05/27 11:51:33;;;;;;;0.80;0.80;;;19.20;69.90;;;;;;5107707;28;21248;-85
2022/05/27 11:54:24;;;;;;;0.60;0.60;;;19.20;69.60;;;;;;5087280;28;20729;-86
2022/05/27 11:57:11;;;;;;;0.80;0.57;;;19.20;71.10;;;;;;5086358;28;21301;-85
2022/05/27 11:59:47;;;;;;;1.03;0.70;;;19.40;70.50;;;;;;5087490;28;20979;-86
2022/05/27 12:02:23;;;;;;;0.63;0.53;;;19.30;70.10;;;;;;5086373;28;20719;-86
2022/05/27 12:04:55;;;;;;;0.60;0.60;;;19.30;70.90;;;;;;5087181;28;20660;-86
2022/05/27 12:07:29;;;;;;;0.77;0.77;;;19.40;71.20;;;;;;5086178;28;20662;-86
2022/05/27 12:10:07;;;;;;;0.70;0.70;;;19.70;71.30;;;;;;5096582;28;21160;-86
2022/05/27 12:12:39;;;;;;;0.87;0.87;;;20.00;71.20;;;;;;5096916;28;20619;-85
2022/05/27 12:15:09;;;;;;;0.80;0.77;;;20.30;71.80;;;;;;5101501;28;20724;-86
2022/05/27 12:17:41;;;;;;;0.70;0.70;;;21.40;69.00;;;;;;5092904;28;20649;-84
2022/05/27 12:20:15;;;;;;;0.50;0.50;;;21.50;70.10;;;;;;5106881;28;21201;-87
2022/05/27 12:22:42;;;;;;;0.60;0.60;;;22.50;65.70;;;;;;5102729;28;20621;-87
2022/05/27 12:25:14;;;;;;;0.50;0.50;;;22.80;65.30;;;;;;5086804;28;21024;-86
2022/05/27 12:27:41;;;;;;;0.60;0.60;;;22.40;65.20;;;;;;5094522;28;21111;-87
2022/05/27 12:30:10;;;;;;;1.03;1.03;;;21.90;65.00;;;;;;5086798;28;20711;-86
2022/05/27 12:32:41;;;;;;;0.90;0.90;;;22.00;65.90;;;;;;5090288;28;20638;-86
2022/05/27 12:35:26;;;;;;;0.90;0.90;;;22.00;66.30;;;;;;5107439;28;20700;-85
2022/05/27 12:38:00;;;;;;;0.60;0.60;;;22.10;66.60;;;;;;5098219;28;20628;-87
2022/05/27 12:40:34;;;;;;;0.77;0.77;;;22.30;66.40;;;;;;5096008;28;20634;-86
2022/05/27 12:43:10;;;;;;;0.73;0.70;;;21.10;65.50;;;;;;5096603;28;21216;-87
2022/05/27 12:45:48;;;;;;;1.03;0.57;;;21.10;66.10;;;;;;5110212;28;20627;-86
2022/05/27 12:48:30;;;;;;;0.70;0.70;;;21.30;67.20;;;;;;5107460;28;20737;-85
2022/05/27 12:51:00;;;;;;;1.10;1.00;;;21.10;65.50;;;;;;5108793;28;20663;-86
2022/05/27 12:53:44;;;;;;;1.03;0.53;;;20.90;67.10;;;;;;5093148;28;20731;-86
2022/05/27 13:02:50;;;;;;;1.40;0.90;;;20.40;69.50;;;;;;5090223;28;21021;-86
2022/05/27 13:05:20;;;;;;;0.80;0.80;;;20.30;71.70;;;;;;5089781;28;20719;-85
2022/05/27 13:07:51;;;;;;;0.90;0.90;;;20.10;70.00;;;;;;5089304;28;20731;-84
2022/05/27 13:10:47;;;;;;;1.03;0.93;;;20.00;70.40;;;;;;5090665;28;21651;-86
2022/05/27 13:13:19;;;;;;;1.13;1.03;;;19.80;69.60;;;;;;5089988;28;20731;-86
2022/05/27 13:15:53;;;;;;;0.90;0.90;;;19.70;71.80;;;;;;5089671;28;21247;-85
2022/05/27 13:18:34;;;;;;;0.83;0.83;;;19.50;71.30;;;;;;5090325;28;20645;-86
2022/05/27 13:21:08;;;;;;;0.77;0.77;;;19.70;73.00;;;;;;5093418;28;20628;-86
2022/05/27 13:23:51;;;;;;;0.70;0.67;;;19.80;71.70;;;;;;5104905;28;20634;-86
2022/05/27 13:26:31;;;;;;;0.80;0.80;;;19.80;72.00;;;;;;5109523;28;20644;-86
2022/05/27 13:28:58;;;;;;;1.20;1.10;;;19.70;72.60;;;;;;5108306;28;20611;-85
2022/05/27 13:31:32;;;;;;;0.90;0.90;;;19.70;72.00;;;;;;5093058;28;21279;-87
2022/05/27 13:34:07;;;;;;;1.67;0.90;;;19.60;72.10;;;;;;5091361;28;20718;-87
2022/05/27 13:36:41;;;;;;;1.00;0.80;;;19.50;72.10;;;;;;5095779;28;20628;-85
2022/05/27 13:41:57;;;;;;;0.60;0.60;;;19.40;73.20;;;;;;5112980;28;20627;-87
2022/05/27 13:44:25;;;;;;;1.77;1.53;;;19.40;73.40;;;;;;5103097;27;21185;-87
2022/05/27 13:46:55;;;;;;;0.40;0.40;;;19.40;72.10;;;;;;5090769;28;20690;-85
2022/05/27 13:49:30;;;;;;;2.83;0.87;;;19.40;71.90;;;;;;5107707;28;20628;-87
2022/05/27 13:51:57;;;;;;;0.50;0.50;;;19.20;71.60;;;;;;5089937;28;20659;-86
2022/05/27 13:54:33;;;;;;;0.50;0.50;;;18.90;72.60;;;;;;5108418;28;20727;-87
2022/05/27 13:57:05;;;;;;;1.23;0.90;;;18.80;73.40;;;;;;5104689;28;20613;-86
2022/05/27 13:59:38;;;;;;;0.70;0.70;;;18.80;73.90;;;;;;5103334;28;20678;-85
2022/05/27 14:02:08;;;;;;;0.60;0.60;;;18.80;74.60;;;;;;5109797;28;20738;-85